sensor_id;sensor_type;location;lat;lon;timestamp;temperature;humidity
25342;DHT22;13298;48.792;9.154;2024-01-11T00:00:16;-5.00;99.90
25342;DHT22;13298;48.792;9.154;2024-01-11T00:02:42;-5.00;99.90
25342;DHT22;13298;48.792;9.154;2024-01-11T00:05:08;-5.00;99.90
25342;DHT22;13298;48.792;9.154;2024-01-11T00:07:34;-5.00;99.90
25342;DHT22;13298;48.792;9.154;2024-01-11T00:10:01;-5.00;99.90
25342;DHT22;13298;48.792;9.154;2024-01-11T00:12:28;-5.00;99.90
25342;DHT22;13298;48.792;9.154;2024-01-11T00:14:53;-5.00;99.90
25342;DHT22;13298;48.792;9.154;2024-01-11T00:17:19;-5.00;99.90
25342;DHT22;13298;48.792;9.154;2024-01-11T00:19:45;-5.00;99.90
25342;DHT22;13298;48.792;9.154;2024-01-11T00:22:10;-4.90;99.90
25342;DHT22;13298;48.792;9.154;2024-01-11T00:24:36;-5.00;99.90
25342;DHT22;13298;48.792;9.154;2024-01-11T00:27:02;-5.00;99.90
25342;DHT22;13298;48.792;9.154;2024-01-11T00:29:27;-5.00;99.90
25342;DHT22;13298;48.792;9.154;2024-01-11T00:31:54;-5.00;99.90
25342;DHT22;13298;48.792;9.154;2024-01-11T00:34:20;-5.00;99.90
25342;DHT22;13298;48.792;9.154;2024-01-11T00:36:47;-5.00;99.90
25342;DHT22;13298;48.792;9.154;2024-01-11T00:39:12;-5.00;99.90
25342;DHT22;13298;48.792;9.154;2024-01-11T00:41:38;-5.00;99.90
25342;DHT22;13298;48.792;9.154;2024-01-11T00:44:04;-5.00;99.90
25342;DHT22;13298;48.792;9.154;2024-01-11T00:46:30;-5.00;99.90
25342;DHT22;13298;48.792;9.154;2024-01-11T00:48:55;-5.00;99.90
25342;DHT22;13298;48.792;9.154;2024-01-11T00:51:21;-5.00;99.90
25342;DHT22;13298;48.792;9.154;2024-01-11T00:53:47;-5.00;99.90
25342;DHT22;13298;48.792;9.154;2024-01-11T00:56:17;-5.00;99.90
25342;DHT22;13298;48.792;9.154;2024-01-11T00:58:43;-5.00;99.90
25342;DHT22;13298;48.792;9.154;2024-01-11T01:01:09;-5.00;99.90
25342;DHT22;13298;48.792;9.154;2024-01-11T01:03:35;-5.00;99.90
25342;DHT22;13298;48.792;9.154;2024-01-11T01:06:01;-5.10;99.90
25342;DHT22;13298;48.792;9.154;2024-01-11T01:08:28;-5.10;99.90
25342;DHT22;13298;48.792;9.154;2024-01-11T01:10:53;-5.20;99.90
25342;DHT22;13298;48.792;9.154;2024-01-11T01:13:20;-5.20;99.90
25342;DHT22;13298;48.792;9.154;2024-01-11T01:15:45;-5.30;99.90
25342;DHT22;13298;48.792;9.154;2024-01-11T01:18:11;-5.30;99.90
25342;DHT22;13298;48.792;9.154;2024-01-11T01:20:37;-5.20;99.90
25342;DHT22;13298;48.792;9.154;2024-01-11T01:23:03;-5.20;99.90
25342;DHT22;13298;48.792;9.154;2024-01-11T01:25:28;-5.20;99.90
25342;DHT22;13298;48.792;9.154;2024-01-11T01:27:55;-5.20;99.90
25342;DHT22;13298;48.792;9.154;2024-01-11T01:30:21;-5.20;99.90
25342;DHT22;13298;48.792;9.154;2024-01-11T01:32:48;-5.20;99.90
25342;DHT22;13298;48.792;9.154;2024-01-11T01:35:14;-5.20;99.90
25342;DHT22;13298;48.792;9.154;2024-01-11T01:37:39;-5.20;99.90
25342;DHT22;13298;48.792;9.154;2024-01-11T01:40:06;-5.20;99.90
25342;DHT22;13298;48.792;9.154;2024-01-11T01:42:33;-5.20;99.90
25342;DHT22;13298;48.792;9.154;2024-01-11T01:44:59;-5.20;99.90
25342;DHT22;13298;48.792;9.154;2024-01-11T01:47:26;-5.30;99.90
25342;DHT22;13298;48.792;9.154;2024-01-11T01:49:53;-5.30;99.90
25342;DHT22;13298;48.792;9.154;2024-01-11T01:52:20;-5.30;99.90
25342;DHT22;13298;48.792;9.154;2024-01-11T01:54:48;-5.40;99.90
25342;DHT22;13298;48.792;9.154;2024-01-11T01:57:15;-5.40;99.90
25342;DHT22;13298;48.792;9.154;2024-01-11T01:59:42;-5.50;99.90
25342;DHT22;13298;48.792;9.154;2024-01-11T02:02:09;-5.50;99.90
25342;DHT22;13298;48.792;9.154;2024-01-11T02:04:36;-5.50;99.90
25342;DHT22;13298;48.792;9.154;2024-01-11T02:07:02;-5.50;99.90
25342;DHT22;13298;48.792;9.154;2024-01-11T02:09:28;-5.60;99.90
25342;DHT22;13298;48.792;9.154;2024-01-11T02:11:54;-5.70;99.90
25342;DHT22;13298;48.792;9.154;2024-01-11T02:14:20;-5.60;99.90
25342;DHT22;13298;48.792;9.154;2024-01-11T02:16:46;-5.60;99.90
25342;DHT22;13298;48.792;9.154;2024-01-11T02:19:17;-5.60;99.90
25342;DHT22;13298;48.792;9.154;2024-01-11T02:21:46;-5.60;99.90
25342;DHT22;13298;48.792;9.154;2024-01-11T02:24:14;-5.60;99.90
25342;DHT22;13298;48.792;9.154;2024-01-11T02:26:59;-5.60;99.90
25342;DHT22;13298;48.792;9.154;2024-01-11T02:29:26;-5.60;99.90
25342;DHT22;13298;48.792;9.154;2024-01-11T02:31:52;-5.60;99.90
25342;DHT22;13298;48.792;9.154;2024-01-11T02:34:18;-5.60;99.90
25342;DHT22;13298;48.792;9.154;2024-01-11T02:36:44;-5.60;99.90
25342;DHT22;13298;48.792;9.154;2024-01-11T02:39:11;-5.70;99.90
25342;DHT22;13298;48.792;9.154;2024-01-11T02:41:37;-5.70;99.90
25342;DHT22;13298;48.792;9.154;2024-01-11T02:44:03;-5.70;99.90
25342;DHT22;13298;48.792;9.154;2024-01-11T02:46:30;-5.70;99.90
25342;DHT22;13298;48.792;9.154;2024-01-11T02:48:55;-5.70;99.90
25342;DHT22;13298;48.792;9.154;2024-01-11T02:51:21;-5.70;99.90
25342;DHT22;13298;48.792;9.154;2024-01-11T02:53:47;-5.70;99.90
25342;DHT22;13298;48.792;9.154;2024-01-11T02:56:12;-5.80;99.90
25342;DHT22;13298;48.792;9.154;2024-01-11T02:58:38;-5.70;99.90
25342;DHT22;13298;48.792;9.154;2024-01-11T03:01:04;-5.80;99.90
25342;DHT22;13298;48.792;9.154;2024-01-11T03:03:29;-5.80;99.90
25342;DHT22;13298;48.792;9.154;2024-01-11T03:05:55;-5.80;99.90
25342;DHT22;13298;48.792;9.154;2024-01-11T03:08:21;-5.80;99.90
25342;DHT22;13298;48.792;9.154;2024-01-11T03:10:46;-5.70;99.90
25342;DHT22;13298;48.792;9.154;2024-01-11T03:13:12;-5.70;99.90
25342;DHT22;13298;48.792;9.154;2024-01-11T03:15:38;-5.70;99.90
25342;DHT22;13298;48.792;9.154;2024-01-11T03:18:04;-5.80;99.90
25342;DHT22;13298;48.792;9.154;2024-01-11T03:20:30;-5.70;99.90
25342;DHT22;13298;48.792;9.154;2024-01-11T03:22:56;-5.70;99.90
25342;DHT22;13298;48.792;9.154;2024-01-11T03:25:21;-5.70;99.90
25342;DHT22;13298;48.792;9.154;2024-01-11T03:27:47;-5.70;99.90
25342;DHT22;13298;48.792;9.154;2024-01-11T03:30:13;-5.80;99.90
25342;DHT22;13298;48.792;9.154;2024-01-11T03:32:39;-5.80;99.90
25342;DHT22;13298;48.792;9.154;2024-01-11T03:35:08;-5.80;99.90
25342;DHT22;13298;48.792;9.154;2024-01-11T03:37:34;-5.80;99.90
25342;DHT22;13298;48.792;9.154;2024-01-11T03:40:01;-5.80;99.90
25342;DHT22;13298;48.792;9.154;2024-01-11T03:42:28;-5.80;99.90
25342;DHT22;13298;48.792;9.154;2024-01-11T03:44:54;-5.80;99.90
25342;DHT22;13298;48.792;9.154;2024-01-11T03:47:19;-5.90;99.90
25342;DHT22;13298;48.792;9.154;2024-01-11T03:49:45;-5.90;99.90
25342;DHT22;13298;48.792;9.154;2024-01-11T03:52:11;-5.90;99.90
25342;DHT22;13298;48.792;9.154;2024-01-11T03:54:36;-5.90;99.90
25342;DHT22;13298;48.792;9.154;2024-01-11T03:57:02;-5.80;99.90
25342;DHT22;13298;48.792;9.154;2024-01-11T03:59:28;-5.90;99.90
25342;DHT22;13298;48.792;9.154;2024-01-11T04:01:54;-5.90;99.90
25342;DHT22;13298;48.792;9.154;2024-01-11T04:04:20;-5.90;99.90
25342;DHT22;13298;48.792;9.154;2024-01-11T04:06:46;-6.00;99.90
25342;DHT22;13298;48.792;9.154;2024-01-11T04:09:11;-6.00;99.90
25342;DHT22;13298;48.792;9.154;2024-01-11T04:11:37;-6.00;99.90
25342;DHT22;13298;48.792;9.154;2024-01-11T04:14:03;-6.00;99.90
25342;DHT22;13298;48.792;9.154;2024-01-11T04:16:28;-6.00;99.90
25342;DHT22;13298;48.792;9.154;2024-01-11T04:18:54;-6.00;99.90
25342;DHT22;13298;48.792;9.154;2024-01-11T04:21:27;-6.00;99.90
25342;DHT22;13298;48.792;9.154;2024-01-11T04:23:56;-6.00;99.90
25342;DHT22;13298;48.792;9.154;2024-01-11T04:26:22;-6.00;99.90
25342;DHT22;13298;48.792;9.154;2024-01-11T04:28:49;-6.00;99.90
25342;DHT22;13298;48.792;9.154;2024-01-11T04:31:15;-6.00;99.90
25342;DHT22;13298;48.792;9.154;2024-01-11T04:33:44;-6.00;99.90
25342;DHT22;13298;48.792;9.154;2024-01-11T04:36:11;-6.00;99.90
25342;DHT22;13298;48.792;9.154;2024-01-11T04:38:37;-6.00;99.90
25342;DHT22;13298;48.792;9.154;2024-01-11T04:41:08;-6.00;99.90
25342;DHT22;13298;48.792;9.154;2024-01-11T04:43:37;-6.00;99.90
25342;DHT22;13298;48.792;9.154;2024-01-11T04:46:04;-6.00;99.90
25342;DHT22;13298;48.792;9.154;2024-01-11T04:48:29;-6.00;99.90
25342;DHT22;13298;48.792;9.154;2024-01-11T04:50:55;-6.00;99.90
25342;DHT22;13298;48.792;9.154;2024-01-11T04:53:21;-6.00;99.90
25342;DHT22;13298;48.792;9.154;2024-01-11T04:55:46;-6.00;99.90
25342;DHT22;13298;48.792;9.154;2024-01-11T04:58:12;-6.00;99.90
25342;DHT22;13298;48.792;9.154;2024-01-11T05:00:41;-6.00;99.90
25342;DHT22;13298;48.792;9.154;2024-01-11T05:03:06;-6.00;99.90
25342;DHT22;13298;48.792;9.154;2024-01-11T05:05:32;-6.10;99.90
25342;DHT22;13298;48.792;9.154;2024-01-11T05:07:58;-6.10;99.90
25342;DHT22;13298;48.792;9.154;2024-01-11T05:10:23;-6.10;99.90
25342;DHT22;13298;48.792;9.154;2024-01-11T05:12:49;-6.10;99.90
25342;DHT22;13298;48.792;9.154;2024-01-11T05:15:15;-6.10;99.90
25342;DHT22;13298;48.792;9.154;2024-01-11T05:17:40;-6.10;99.90
25342;DHT22;13298;48.792;9.154;2024-01-11T05:20:08;-6.10;99.90
25342;DHT22;13298;48.792;9.154;2024-01-11T05:22:34;-6.10;99.90
25342;DHT22;13298;48.792;9.154;2024-01-11T05:24:59;-6.10;99.90
25342;DHT22;13298;48.792;9.154;2024-01-11T05:27:25;-6.10;99.90
25342;DHT22;13298;48.792;9.154;2024-01-11T05:29:50;-6.10;99.90
25342;DHT22;13298;48.792;9.154;2024-01-11T05:32:16;-6.10;99.90
25342;DHT22;13298;48.792;9.154;2024-01-11T05:34:42;-6.10;99.90
25342;DHT22;13298;48.792;9.154;2024-01-11T05:37:07;-6.10;99.90
25342;DHT22;13298;48.792;9.154;2024-01-11T05:39:33;-6.10;99.90
25342;DHT22;13298;48.792;9.154;2024-01-11T05:41:59;-6.10;99.90
25342;DHT22;13298;48.792;9.154;2024-01-11T05:44:24;-6.10;99.90
25342;DHT22;13298;48.792;9.154;2024-01-11T05:46:50;-6.20;99.90
25342;DHT22;13298;48.792;9.154;2024-01-11T05:49:16;-6.10;99.90
25342;DHT22;13298;48.792;9.154;2024-01-11T05:51:42;-6.20;99.90
25342;DHT22;13298;48.792;9.154;2024-01-11T05:54:07;-6.20;99.90
25342;DHT22;13298;48.792;9.154;2024-01-11T05:56:33;-6.20;99.90
25342;DHT22;13298;48.792;9.154;2024-01-11T05:58:59;-6.20;99.90
25342;DHT22;13298;48.792;9.154;2024-01-11T06:01:24;-6.20;99.90
25342;DHT22;13298;48.792;9.154;2024-01-11T06:03:50;-6.20;99.90
25342;DHT22;13298;48.792;9.154;2024-01-11T06:06:16;-6.20;99.90
25342;DHT22;13298;48.792;9.154;2024-01-11T06:08:41;-6.20;99.90
25342;DHT22;13298;48.792;9.154;2024-01-11T06:11:08;-6.10;99.90
25342;DHT22;13298;48.792;9.154;2024-01-11T06:13:34;-6.20;99.90
25342;DHT22;13298;48.792;9.154;2024-01-11T06:16:00;-6.30;99.90
25342;DHT22;13298;48.792;9.154;2024-01-11T06:18:26;-6.20;99.90
25342;DHT22;13298;48.792;9.154;2024-01-11T06:20:52;-6.20;99.90
25342;DHT22;13298;48.792;9.154;2024-01-11T06:23:17;-6.20;99.90
25342;DHT22;13298;48.792;9.154;2024-01-11T06:25:44;-6.30;99.90
25342;DHT22;13298;48.792;9.154;2024-01-11T06:28:11;-6.30;99.90
25342;DHT22;13298;48.792;9.154;2024-01-11T06:30:37;-6.30;99.90
25342;DHT22;13298;48.792;9.154;2024-01-11T06:33:03;-6.30;99.90
25342;DHT22;13298;48.792;9.154;2024-01-11T06:35:29;-6.30;99.90
25342;DHT22;13298;48.792;9.154;2024-01-11T06:37:54;-6.30;99.90
25342;DHT22;13298;48.792;9.154;2024-01-11T06:40:20;-6.30;99.90
25342;DHT22;13298;48.792;9.154;2024-01-11T06:42:46;-6.20;99.90
25342;DHT22;13298;48.792;9.154;2024-01-11T06:45:11;-6.20;99.90
25342;DHT22;13298;48.792;9.154;2024-01-11T06:47:37;-6.20;99.90
25342;DHT22;13298;48.792;9.154;2024-01-11T06:50:03;-6.20;99.90
25342;DHT22;13298;48.792;9.154;2024-01-11T06:52:29;-6.30;99.90
25342;DHT22;13298;48.792;9.154;2024-01-11T06:54:54;-6.20;99.90
25342;DHT22;13298;48.792;9.154;2024-01-11T06:57:20;-6.30;99.90
25342;DHT22;13298;48.792;9.154;2024-01-11T06:59:46;-6.30;99.90
25342;DHT22;13298;48.792;9.154;2024-01-11T07:02:11;-6.30;99.90
25342;DHT22;13298;48.792;9.154;2024-01-11T07:04:38;-6.30;99.90
25342;DHT22;13298;48.792;9.154;2024-01-11T07:07:03;-6.30;99.90
25342;DHT22;13298;48.792;9.154;2024-01-11T07:09:29;-6.30;99.90
25342;DHT22;13298;48.792;9.154;2024-01-11T07:11:55;-6.30;99.90
25342;DHT22;13298;48.792;9.154;2024-01-11T07:14:21;-6.30;99.90
25342;DHT22;13298;48.792;9.154;2024-01-11T07:16:46;-6.30;99.90
25342;DHT22;13298;48.792;9.154;2024-01-11T07:19:12;-6.30;99.90
25342;DHT22;13298;48.792;9.154;2024-01-11T07:21:38;-6.20;99.90
25342;DHT22;13298;48.792;9.154;2024-01-11T07:24:04;-6.20;99.90
25342;DHT22;13298;48.792;9.154;2024-01-11T07:26:30;-6.20;99.90
25342;DHT22;13298;48.792;9.154;2024-01-11T07:28:56;-6.20;99.90
25342;DHT22;13298;48.792;9.154;2024-01-11T07:31:21;-6.10;99.90
25342;DHT22;13298;48.792;9.154;2024-01-11T07:33:47;-6.10;99.90
25342;DHT22;13298;48.792;9.154;2024-01-11T07:36:13;-6.10;99.90
25342;DHT22;13298;48.792;9.154;2024-01-11T07:38:39;-6.10;99.90
25342;DHT22;13298;48.792;9.154;2024-01-11T07:41:04;-6.00;99.90
25342;DHT22;13298;48.792;9.154;2024-01-11T07:43:30;-6.00;99.90
25342;DHT22;13298;48.792;9.154;2024-01-11T07:46:01;-6.00;99.90
25342;DHT22;13298;48.792;9.154;2024-01-11T07:48:31;-6.00;99.90
25342;DHT22;13298;48.792;9.154;2024-01-11T07:50:58;-6.00;99.90
25342;DHT22;13298;48.792;9.154;2024-01-11T07:53:24;-6.00;99.90
25342;DHT22;13298;48.792;9.154;2024-01-11T07:55:51;-6.00;99.90
25342;DHT22;13298;48.792;9.154;2024-01-11T07:58:17;-6.00;99.90
25342;DHT22;13298;48.792;9.154;2024-01-11T08:00:42;-5.90;99.90
25342;DHT22;13298;48.792;9.154;2024-01-11T08:03:08;-5.90;99.90
25342;DHT22;13298;48.792;9.154;2024-01-11T08:05:34;-5.90;99.90
25342;DHT22;13298;48.792;9.154;2024-01-11T08:08:00;-5.80;99.90
25342;DHT22;13298;48.792;9.154;2024-01-11T08:10:28;-5.80;99.90
25342;DHT22;13298;48.792;9.154;2024-01-11T08:12:55;-5.80;99.90
25342;DHT22;13298;48.792;9.154;2024-01-11T08:15:21;-5.80;99.90
25342;DHT22;13298;48.792;9.154;2024-01-11T08:17:47;-5.80;99.90
25342;DHT22;13298;48.792;9.154;2024-01-11T08:20:14;-5.80;99.90
25342;DHT22;13298;48.792;9.154;2024-01-11T08:22:41;-5.70;99.90
25342;DHT22;13298;48.792;9.154;2024-01-11T08:25:08;-5.70;99.90
25342;DHT22;13298;48.792;9.154;2024-01-11T08:27:34;-5.70;99.90
25342;DHT22;13298;48.792;9.154;2024-01-11T08:30:00;-5.60;99.90
25342;DHT22;13298;48.792;9.154;2024-01-11T08:32:26;-5.60;99.90
25342;DHT22;13298;48.792;9.154;2024-01-11T08:34:52;-5.60;99.90
25342;DHT22;13298;48.792;9.154;2024-01-11T08:37:18;-5.60;99.90
25342;DHT22;13298;48.792;9.154;2024-01-11T08:39:44;-5.50;99.90
25342;DHT22;13298;48.792;9.154;2024-01-11T08:42:11;-5.50;99.90
25342;DHT22;13298;48.792;9.154;2024-01-11T08:44:41;-5.50;99.90
25342;DHT22;13298;48.792;9.154;2024-01-11T08:47:08;-5.40;99.90
25342;DHT22;13298;48.792;9.154;2024-01-11T08:49:38;-5.30;99.90
25342;DHT22;13298;48.792;9.154;2024-01-11T08:52:05;-5.30;99.90
25342;DHT22;13298;48.792;9.154;2024-01-11T08:54:31;-5.20;99.90
25342;DHT22;13298;48.792;9.154;2024-01-11T08:57:00;-5.10;99.90
25342;DHT22;13298;48.792;9.154;2024-01-11T08:59:27;-5.10;99.90
25342;DHT22;13298;48.792;9.154;2024-01-11T09:01:52;-5.00;99.90
25342;DHT22;13298;48.792;9.154;2024-01-11T09:04:18;-5.00;99.90
25342;DHT22;13298;48.792;9.154;2024-01-11T09:06:44;-4.90;99.90
25342;DHT22;13298;48.792;9.154;2024-01-11T09:09:11;-4.90;99.90
25342;DHT22;13298;48.792;9.154;2024-01-11T09:11:39;-4.80;99.90
25342;DHT22;13298;48.792;9.154;2024-01-11T09:14:06;-4.80;99.90
25342;DHT22;13298;48.792;9.154;2024-01-11T09:16:32;-4.70;99.90
25342;DHT22;13298;48.792;9.154;2024-01-11T09:18:58;-4.70;99.90
25342;DHT22;13298;48.792;9.154;2024-01-11T09:21:27;-4.60;99.90
25342;DHT22;13298;48.792;9.154;2024-01-11T09:23:52;-4.60;99.90
25342;DHT22;13298;48.792;9.154;2024-01-11T09:26:18;-4.50;99.90
25342;DHT22;13298;48.792;9.154;2024-01-11T09:28:44;-4.50;99.90
25342;DHT22;13298;48.792;9.154;2024-01-11T09:31:11;-4.40;99.90
25342;DHT22;13298;48.792;9.154;2024-01-11T09:33:37;-4.40;99.90
25342;DHT22;13298;48.792;9.154;2024-01-11T09:36:03;-4.30;99.90
25342;DHT22;13298;48.792;9.154;2024-01-11T09:38:29;-4.20;99.90
25342;DHT22;13298;48.792;9.154;2024-01-11T09:41:09;-4.20;99.90
25342;DHT22;13298;48.792;9.154;2024-01-11T09:43:36;-4.20;99.90
25342;DHT22;13298;48.792;9.154;2024-01-11T09:46:05;-4.20;99.90
25342;DHT22;13298;48.792;9.154;2024-01-11T09:48:35;-4.10;99.90
25342;DHT22;13298;48.792;9.154;2024-01-11T09:51:03;-4.10;99.90
25342;DHT22;13298;48.792;9.154;2024-01-11T09:53:32;-4.10;99.90
25342;DHT22;13298;48.792;9.154;2024-01-11T09:56:01;-4.00;99.90
25342;DHT22;13298;48.792;9.154;2024-01-11T09:58:27;-4.00;99.90
25342;DHT22;13298;48.792;9.154;2024-01-11T10:00:56;-3.90;99.90
25342;DHT22;13298;48.792;9.154;2024-01-11T10:03:24;-3.90;99.90
25342;DHT22;13298;48.792;9.154;2024-01-11T10:05:54;-3.90;99.90
25342;DHT22;13298;48.792;9.154;2024-01-11T10:08:23;-3.90;99.90
25342;DHT22;13298;48.792;9.154;2024-01-11T10:10:49;-3.80;99.90
25342;DHT22;13298;48.792;9.154;2024-01-11T10:13:15;-3.70;99.90
25342;DHT22;13298;48.792;9.154;2024-01-11T10:15:42;-3.70;99.90
25342;DHT22;13298;48.792;9.154;2024-01-11T10:18:08;-3.70;99.90
25342;DHT22;13298;48.792;9.154;2024-01-11T10:20:34;-3.60;99.90
25342;DHT22;13298;48.792;9.154;2024-01-11T10:23:01;-3.60;99.90
25342;DHT22;13298;48.792;9.154;2024-01-11T10:25:27;-3.60;99.90
25342;DHT22;13298;48.792;9.154;2024-01-11T10:27:54;-3.50;99.90
25342;DHT22;13298;48.792;9.154;2024-01-11T10:30:20;-3.40;99.90
25342;DHT22;13298;48.792;9.154;2024-01-11T10:32:48;-3.40;99.90
25342;DHT22;13298;48.792;9.154;2024-01-11T10:35:14;-3.30;99.90
25342;DHT22;13298;48.792;9.154;2024-01-11T10:37:43;-3.30;99.90
25342;DHT22;13298;48.792;9.154;2024-01-11T10:40:09;-3.20;99.90
25342;DHT22;13298;48.792;9.154;2024-01-11T10:42:43;-3.20;99.90
25342;DHT22;13298;48.792;9.154;2024-01-11T10:45:15;-3.20;99.90
25342;DHT22;13298;48.792;9.154;2024-01-11T10:47:51;-3.10;99.90
25342;DHT22;13298;48.792;9.154;2024-01-11T10:50:19;-3.10;99.90
25342;DHT22;13298;48.792;9.154;2024-01-11T10:55:44;-2.90;99.90
25342;DHT22;13298;48.792;9.154;2024-01-11T10:58:10;-2.80;99.90
25342;DHT22;13298;48.792;9.154;2024-01-11T11:00:37;-2.70;99.90
25342;DHT22;13298;48.792;9.154;2024-01-11T11:03:05;-2.70;99.90
25342;DHT22;13298;48.792;9.154;2024-01-11T11:05:32;-2.60;99.90
25342;DHT22;13298;48.792;9.154;2024-01-11T11:08:01;-2.60;99.90
25342;DHT22;13298;48.792;9.154;2024-01-11T11:10:28;-2.50;99.90
25342;DHT22;13298;48.792;9.154;2024-01-11T11:12:55;-2.40;99.90
25342;DHT22;13298;48.792;9.154;2024-01-11T11:15:27;-2.40;99.90
25342;DHT22;13298;48.792;9.154;2024-01-11T11:17:52;-2.40;99.90
25342;DHT22;13298;48.792;9.154;2024-01-11T11:20:19;-2.30;99.90
25342;DHT22;13298;48.792;9.154;2024-01-11T11:22:56;-2.30;99.90
25342;DHT22;13298;48.792;9.154;2024-01-11T11:25:30;-2.30;99.90
25342;DHT22;13298;48.792;9.154;2024-01-11T11:27:55;-2.30;99.90
25342;DHT22;13298;48.792;9.154;2024-01-11T11:30:21;-2.30;99.90
25342;DHT22;13298;48.792;9.154;2024-01-11T11:32:48;-2.30;99.90
25342;DHT22;13298;48.792;9.154;2024-01-11T11:35:14;-2.20;99.90
25342;DHT22;13298;48.792;9.154;2024-01-11T11:37:39;-2.10;99.90
25342;DHT22;13298;48.792;9.154;2024-01-11T11:40:08;-2.20;99.90
25342;DHT22;13298;48.792;9.154;2024-01-11T11:42:36;-2.10;99.90
25342;DHT22;13298;48.792;9.154;2024-01-11T11:45:02;-2.10;99.90
25342;DHT22;13298;48.792;9.154;2024-01-11T11:47:36;-2.10;99.90
25342;DHT22;13298;48.792;9.154;2024-01-11T11:52:33;-2.00;99.90
25342;DHT22;13298;48.792;9.154;2024-01-11T11:55:01;-1.90;99.90
25342;DHT22;13298;48.792;9.154;2024-01-11T11:57:28;-2.00;99.90
25342;DHT22;13298;48.792;9.154;2024-01-11T11:59:57;-1.90;99.90
25342;DHT22;13298;48.792;9.154;2024-01-11T12:02:33;-1.90;99.90
25342;DHT22;13298;48.792;9.154;2024-01-11T12:05:01;-1.90;99.90
25342;DHT22;13298;48.792;9.154;2024-01-11T12:07:27;-1.90;99.90
25342;DHT22;13298;48.792;9.154;2024-01-11T12:09:53;-1.80;99.90
25342;DHT22;13298;48.792;9.154;2024-01-11T12:12:19;-1.80;99.90
25342;DHT22;13298;48.792;9.154;2024-01-11T12:14:47;-1.70;99.90
25342;DHT22;13298;48.792;9.154;2024-01-11T12:17:13;-1.70;99.90
25342;DHT22;13298;48.792;9.154;2024-01-11T12:19:39;-1.60;99.90
25342;DHT22;13298;48.792;9.154;2024-01-11T12:22:05;-1.60;99.90
25342;DHT22;13298;48.792;9.154;2024-01-11T12:24:31;-1.50;99.90
25342;DHT22;13298;48.792;9.154;2024-01-11T12:26:59;-1.50;99.90
25342;DHT22;13298;48.792;9.154;2024-01-11T12:29:25;-1.40;99.90
25342;DHT22;13298;48.792;9.154;2024-01-11T12:31:51;-1.40;99.90
25342;DHT22;13298;48.792;9.154;2024-01-11T12:34:17;-1.40;99.90
25342;DHT22;13298;48.792;9.154;2024-01-11T12:36:43;-1.40;99.90
25342;DHT22;13298;48.792;9.154;2024-01-11T12:39:10;-1.40;99.90
25342;DHT22;13298;48.792;9.154;2024-01-11T12:41:38;-1.40;99.90
25342;DHT22;13298;48.792;9.154;2024-01-11T12:44:04;-1.30;99.90
25342;DHT22;13298;48.792;9.154;2024-01-11T12:46:30;-1.30;99.90
25342;DHT22;13298;48.792;9.154;2024-01-11T12:48:56;-1.30;99.90
25342;DHT22;13298;48.792;9.154;2024-01-11T12:51:22;-1.30;99.90
25342;DHT22;13298;48.792;9.154;2024-01-11T12:53:48;-1.20;99.90
25342;DHT22;13298;48.792;9.154;2024-01-11T12:56:15;-1.20;99.90
25342;DHT22;13298;48.792;9.154;2024-01-11T12:58:42;-1.20;99.90
25342;DHT22;13298;48.792;9.154;2024-01-11T13:01:08;-1.20;99.90
25342;DHT22;13298;48.792;9.154;2024-01-11T13:03:34;-1.10;99.90
25342;DHT22;13298;48.792;9.154;2024-01-11T13:06:03;-1.10;99.90
25342;DHT22;13298;48.792;9.154;2024-01-11T13:08:33;-1.10;99.90
25342;DHT22;13298;48.792;9.154;2024-01-11T13:11:02;-1.10;99.90
25342;DHT22;13298;48.792;9.154;2024-01-11T13:13:35;-1.10;99.90
25342;DHT22;13298;48.792;9.154;2024-01-11T13:16:01;-1.10;99.90
25342;DHT22;13298;48.792;9.154;2024-01-11T13:18:34;-1.10;99.90
25342;DHT22;13298;48.792;9.154;2024-01-11T13:21:00;-1.10;99.90
25342;DHT22;13298;48.792;9.154;2024-01-11T13:23:26;-1.10;99.90
25342;DHT22;13298;48.792;9.154;2024-01-11T13:25:51;-1.10;99.90
25342;DHT22;13298;48.792;9.154;2024-01-11T13:28:17;-1.10;99.90
25342;DHT22;13298;48.792;9.154;2024-01-11T13:30:44;-1.00;99.90
25342;DHT22;13298;48.792;9.154;2024-01-11T13:33:12;-1.00;99.90
25342;DHT22;13298;48.792;9.154;2024-01-11T13:35:39;-1.00;99.90
25342;DHT22;13298;48.792;9.154;2024-01-11T13:38:05;-1.00;99.90
25342;DHT22;13298;48.792;9.154;2024-01-11T13:40:32;-1.00;99.90
25342;DHT22;13298;48.792;9.154;2024-01-11T13:42:58;-1.00;99.90
25342;DHT22;13298;48.792;9.154;2024-01-11T13:45:25;-1.00;99.90
25342;DHT22;13298;48.792;9.154;2024-01-11T13:47:52;-1.00;99.90
25342;DHT22;13298;48.792;9.154;2024-01-11T13:50:24;-1.00;99.90
25342;DHT22;13298;48.792;9.154;2024-01-11T13:52:50;-1.00;99.90
25342;DHT22;13298;48.792;9.154;2024-01-11T13:55:16;-1.00;99.90
25342;DHT22;13298;48.792;9.154;2024-01-11T13:57:47;-0.90;99.90
25342;DHT22;13298;48.792;9.154;2024-01-11T14:00:18;-1.00;99.90
25342;DHT22;13298;48.792;9.154;2024-01-11T14:02:47;-1.00;99.90
25342;DHT22;13298;48.792;9.154;2024-01-11T14:05:14;-1.00;99.90
25342;DHT22;13298;48.792;9.154;2024-01-11T14:07:43;-1.00;99.90
25342;DHT22;13298;48.792;9.154;2024-01-11T14:10:11;-1.00;99.90
25342;DHT22;13298;48.792;9.154;2024-01-11T14:12:37;-1.00;99.90
25342;DHT22;13298;48.792;9.154;2024-01-11T14:15:04;-1.00;99.90
25342;DHT22;13298;48.792;9.154;2024-01-11T14:17:34;-1.00;99.90
25342;DHT22;13298;48.792;9.154;2024-01-11T14:20:00;-1.00;99.90
25342;DHT22;13298;48.792;9.154;2024-01-11T14:22:26;-1.00;99.90
25342;DHT22;13298;48.792;9.154;2024-01-11T14:24:52;-1.10;99.90
25342;DHT22;13298;48.792;9.154;2024-01-11T14:27:20;-1.10;99.90
25342;DHT22;13298;48.792;9.154;2024-01-11T14:29:47;-1.10;99.90
25342;DHT22;13298;48.792;9.154;2024-01-11T14:32:13;-1.10;99.90
25342;DHT22;13298;48.792;9.154;2024-01-11T14:34:42;-1.20;99.90
25342;DHT22;13298;48.792;9.154;2024-01-11T14:37:10;-1.20;99.90
25342;DHT22;13298;48.792;9.154;2024-01-11T14:39:36;-1.20;99.90
25342;DHT22;13298;48.792;9.154;2024-01-11T14:42:02;-1.30;99.90
25342;DHT22;13298;48.792;9.154;2024-01-11T14:44:28;-1.30;99.90
25342;DHT22;13298;48.792;9.154;2024-01-11T14:46:55;-1.40;99.90
25342;DHT22;13298;48.792;9.154;2024-01-11T14:49:21;-1.40;99.90
25342;DHT22;13298;48.792;9.154;2024-01-11T14:51:47;-1.40;99.90
25342;DHT22;13298;48.792;9.154;2024-01-11T14:54:13;-1.40;99.90
25342;DHT22;13298;48.792;9.154;2024-01-11T14:56:39;-1.50;99.90
25342;DHT22;13298;48.792;9.154;2024-01-11T14:59:04;-1.50;99.90
25342;DHT22;13298;48.792;9.154;2024-01-11T15:01:30;-1.60;99.90
25342;DHT22;13298;48.792;9.154;2024-01-11T15:03:56;-1.60;99.90
25342;DHT22;13298;48.792;9.154;2024-01-11T15:06:22;-1.70;99.90
25342;DHT22;13298;48.792;9.154;2024-01-11T15:08:47;-1.70;99.90
25342;DHT22;13298;48.792;9.154;2024-01-11T15:11:13;-1.70;99.90
25342;DHT22;13298;48.792;9.154;2024-01-11T15:13:39;-1.80;99.90
25342;DHT22;13298;48.792;9.154;2024-01-11T15:16:05;-1.90;99.90
25342;DHT22;13298;48.792;9.154;2024-01-11T15:18:31;-1.90;99.90
25342;DHT22;13298;48.792;9.154;2024-01-11T15:20:57;-2.00;99.90
25342;DHT22;13298;48.792;9.154;2024-01-11T15:23:23;-2.00;99.90
25342;DHT22;13298;48.792;9.154;2024-01-11T15:25:49;-2.10;99.90
25342;DHT22;13298;48.792;9.154;2024-01-11T15:28:16;-2.10;99.90
25342;DHT22;13298;48.792;9.154;2024-01-11T15:30:41;-2.20;99.90